sensor_id;sensor_type;location;lat;lon;timestamp;P1;durP1;ratioP1;P2;durP2;ratioP2
8952;SDS011;4511;50.890;8.054;2023-07-08T00:02:07;10.53;;;7.20;;
8952;SDS011;4511;50.890;8.054;2023-07-08T00:04:34;7.20;;;6.50;;
8952;SDS011;4511;50.890;8.054;2023-07-08T00:07:02;8.77;;;6.47;;
8952;SDS011;4511;50.890;8.054;2023-07-08T00:09:29;7.03;;;5.80;;
8952;SDS011;4511;50.890;8.054;2023-07-08T00:11:56;5.50;;;4.93;;
8952;SDS011;4511;50.890;8.054;2023-07-08T00:14:23;7.03;;;5.87;;
8952;SDS011;4511;50.890;8.054;2023-07-08T00:16:50;6.07;;;4.70;;
8952;SDS011;4511;50.890;8.054;2023-07-08T00:19:17;8.37;;;6.30;;
8952;SDS011;4511;50.890;8.054;2023-07-08T00:21:44;8.57;;;6.13;;
8952;SDS011;4511;50.890;8.054;2023-07-08T00:24:12;7.10;;;5.13;;
8952;SDS011;4511;50.890;8.054;2023-07-08T00:26:38;8.60;;;4.77;;
8952;SDS011;4511;50.890;8.054;2023-07-08T00:29:08;6.03;;;4.57;;
8952;SDS011;4511;50.890;8.054;2023-07-08T00:31:35;7.03;;;5.80;;
8952;SDS011;4511;50.890;8.054;2023-07-08T00:34:02;6.87;;;5.67;;
8952;SDS011;4511;50.890;8.054;2023-07-08T00:36:28;6.53;;;5.70;;
8952;SDS011;4511;50.890;8.054;2023-07-08T00:38:56;7.87;;;6.57;;
8952;SDS011;4511;50.890;8.054;2023-07-08T00:41:25;6.83;;;5.73;;
8952;SDS011;4511;50.890;8.054;2023-07-08T00:43:56;7.70;;;6.30;;
8952;SDS011;4511;50.890;8.054;2023-07-08T00:46:28;9.23;;;6.80;;
8952;SDS011;4511;50.890;8.054;2023-07-08T00:49:07;7.37;;;6.43;;
8952;SDS011;4511;50.890;8.054;2023-07-08T00:51:46;8.93;;;6.60;;
8952;SDS011;4511;50.890;8.054;2023-07-08T00:54:13;8.00;;;6.53;;
8952;SDS011;4511;50.890;8.054;2023-07-08T00:56:44;6.77;;;5.80;;
8952;SDS011;4511;50.890;8.054;2023-07-08T00:59:17;7.30;;;6.10;;
8952;SDS011;4511;50.890;8.054;2023-07-08T01:01:48;6.43;;;5.70;;
8952;SDS011;4511;50.890;8.054;2023-07-08T01:04:17;6.37;;;5.77;;
8952;SDS011;4511;50.890;8.054;2023-07-08T01:06:49;7.83;;;5.87;;
8952;SDS011;4511;50.890;8.054;2023-07-08T01:09:22;8.40;;;5.73;;
8952;SDS011;4511;50.890;8.054;2023-07-08T01:11:53;5.70;;;5.10;;
8952;SDS011;4511;50.890;8.054;2023-07-08T01:14:22;7.60;;;5.20;;
8952;SDS011;4511;50.890;8.054;2023-07-08T01:16:51;6.33;;;5.10;;
8952;SDS011;4511;50.890;8.054;2023-07-08T01:19:19;6.23;;;4.63;;
8952;SDS011;4511;50.890;8.054;2023-07-08T01:22:02;6.73;;;5.13;;
8952;SDS011;4511;50.890;8.054;2023-07-08T01:24:29;6.87;;;5.70;;
8952;SDS011;4511;50.890;8.054;2023-07-08T01:26:59;7.77;;;6.33;;
8952;SDS011;4511;50.890;8.054;2023-07-08T01:29:27;6.67;;;5.47;;
8952;SDS011;4511;50.890;8.054;2023-07-08T01:31:54;6.70;;;6.00;;
8952;SDS011;4511;50.890;8.054;2023-07-08T01:34:21;9.30;;;8.30;;
8952;SDS011;4511;50.890;8.054;2023-07-08T01:36:52;7.93;;;7.07;;
8952;SDS011;4511;50.890;8.054;2023-07-08T01:39:23;8.50;;;6.83;;
8952;SDS011;4511;50.890;8.054;2023-07-08T01:41:51;9.80;;;7.13;;
8952;SDS011;4511;50.890;8.054;2023-07-08T01:44:22;7.83;;;6.87;;
8952;SDS011;4511;50.890;8.054;2023-07-08T01:46:53;9.27;;;7.77;;
8952;SDS011;4511;50.890;8.054;2023-07-08T01:49:23;9.50;;;7.00;;
8952;SDS011;4511;50.890;8.054;2023-07-08T01:51:50;9.40;;;6.80;;
8952;SDS011;4511;50.890;8.054;2023-07-08T01:54:17;7.67;;;6.70;;
8952;SDS011;4511;50.890;8.054;2023-07-08T01:56:45;8.77;;;6.57;;
8952;SDS011;4511;50.890;8.054;2023-07-08T01:59:16;9.17;;;6.73;;
8952;SDS011;4511;50.890;8.054;2023-07-08T02:01:43;9.43;;;6.90;;
8952;SDS011;4511;50.890;8.054;2023-07-08T02:04:10;8.83;;;6.40;;
8952;SDS011;4511;50.890;8.054;2023-07-08T02:06:36;7.00;;;6.07;;
8952;SDS011;4511;50.890;8.054;2023-07-08T02:09:03;10.20;;;6.70;;
8952;SDS011;4511;50.890;8.054;2023-07-08T02:11:31;8.33;;;6.00;;
8952;SDS011;4511;50.890;8.054;2023-07-08T02:13:59;8.03;;;6.20;;
8952;SDS011;4511;50.890;8.054;2023-07-08T02:16:26;7.27;;;6.07;;
8952;SDS011;4511;50.890;8.054;2023-07-08T02:18:53;10.73;;;6.17;;
8952;SDS011;4511;50.890;8.054;2023-07-08T02:21:20;7.57;;;6.00;;
8952;SDS011;4511;50.890;8.054;2023-07-08T02:23:48;9.40;;;6.77;;
8952;SDS011;4511;50.890;8.054;2023-07-08T02:26:16;7.93;;;5.90;;
8952;SDS011;4511;50.890;8.054;2023-07-08T02:28:43;6.57;;;5.90;;
8952;SDS011;4511;50.890;8.054;2023-07-08T02:31:11;8.20;;;6.20;;
8952;SDS011;4511;50.890;8.054;2023-07-08T02:33:39;8.67;;;6.07;;
8952;SDS011;4511;50.890;8.054;2023-07-08T02:36:06;7.40;;;5.87;;
8952;SDS011;4511;50.890;8.054;2023-07-08T02:38:33;7.10;;;5.80;;
8952;SDS011;4511;50.890;8.054;2023-07-08T02:40:59;7.07;;;5.70;;
8952;SDS011;4511;50.890;8.054;2023-07-08T02:43:26;6.87;;;6.17;;
8952;SDS011;4511;50.890;8.054;2023-07-08T02:45:53;7.13;;;6.17;;
8952;SDS011;4511;50.890;8.054;2023-07-08T02:48:21;8.00;;;6.00;;
8952;SDS011;4511;50.890;8.054;2023-07-08T02:50:48;7.77;;;5.97;;
8952;SDS011;4511;50.890;8.054;2023-07-08T02:53:15;7.27;;;6.03;;
8952;SDS011;4511;50.890;8.054;2023-07-08T02:55:41;9.00;;;6.20;;
8952;SDS011;4511;50.890;8.054;2023-07-08T02:58:08;7.07;;;6.00;;
8952;SDS011;4511;50.890;8.054;2023-07-08T03:00:36;7.53;;;5.53;;
8952;SDS011;4511;50.890;8.054;2023-07-08T03:03:03;6.83;;;5.40;;
8952;SDS011;4511;50.890;8.054;2023-07-08T03:05:31;6.43;;;5.50;;
8952;SDS011;4511;50.890;8.054;2023-07-08T03:07:59;6.67;;;5.97;;
8952;SDS011;4511;50.890;8.054;2023-07-08T03:10:26;6.93;;;5.83;;
8952;SDS011;4511;50.890;8.054;2023-07-08T03:12:52;8.67;;;7.07;;
8952;SDS011;4511;50.890;8.054;2023-07-08T03:15:19;6.30;;;5.60;;
8952;SDS011;4511;50.890;8.054;2023-07-08T03:17:46;6.50;;;5.73;;
8952;SDS011;4511;50.890;8.054;2023-07-08T03:20:13;7.30;;;6.17;;
8952;SDS011;4511;50.890;8.054;2023-07-08T03:22:41;6.50;;;5.87;;
8952;SDS011;4511;50.890;8.054;2023-07-08T03:25:08;6.73;;;6.03;;
8952;SDS011;4511;50.890;8.054;2023-07-08T03:27:35;6.70;;;6.00;;
8952;SDS011;4511;50.890;8.054;2023-07-08T03:30:02;7.10;;;6.40;;
8952;SDS011;4511;50.890;8.054;2023-07-08T03:32:30;8.47;;;6.77;;
8952;SDS011;4511;50.890;8.054;2023-07-08T03:34:57;7.57;;;6.53;;
8952;SDS011;4511;50.890;8.054;2023-07-08T03:37:23;8.37;;;6.40;;
8952;SDS011;4511;50.890;8.054;2023-07-08T03:39:52;9.47;;;7.00;;
8952;SDS011;4511;50.890;8.054;2023-07-08T03:42:18;12.00;;;7.47;;
8952;SDS011;4511;50.890;8.054;2023-07-08T03:44:45;11.43;;;7.90;;
8952;SDS011;4511;50.890;8.054;2023-07-08T03:47:12;9.93;;;8.00;;
8952;SDS011;4511;50.890;8.054;2023-07-08T03:49:39;12.40;;;8.10;;
8952;SDS011;4511;50.890;8.054;2023-07-08T03:52:07;12.03;;;8.23;;
8952;SDS011;4511;50.890;8.054;2023-07-08T03:54:39;9.77;;;7.40;;
8952;SDS011;4511;50.890;8.054;2023-07-08T03:57:07;10.20;;;7.63;;
8952;SDS011;4511;50.890;8.054;2023-07-08T03:59:33;9.60;;;7.87;;
8952;SDS011;4511;50.890;8.054;2023-07-08T04:02:00;11.23;;;8.37;;
8952;SDS011;4511;50.890;8.054;2023-07-08T04:04:28;10.30;;;8.37;;
8952;SDS011;4511;50.890;8.054;2023-07-08T04:06:54;9.23;;;7.60;;
8952;SDS011;4511;50.890;8.054;2023-07-08T04:09:21;10.00;;;7.90;;
8952;SDS011;4511;50.890;8.054;2023-07-08T04:11:48;10.33;;;7.80;;
8952;SDS011;4511;50.890;8.054;2023-07-08T04:14:16;8.63;;;7.73;;
8952;SDS011;4511;50.890;8.054;2023-07-08T04:16:44;9.43;;;7.97;;
8952;SDS011;4511;50.890;8.054;2023-07-08T04:19:14;10.00;;;7.77;;
8952;SDS011;4511;50.890;8.054;2023-07-08T04:21:41;7.90;;;6.93;;
8952;SDS011;4511;50.890;8.054;2023-07-08T04:24:09;8.50;;;7.13;;
8952;SDS011;4511;50.890;8.054;2023-07-08T04:26:37;10.27;;;7.50;;
8952;SDS011;4511;50.890;8.054;2023-07-08T04:29:06;7.97;;;6.90;;
8952;SDS011;4511;50.890;8.054;2023-07-08T04:31:37;7.30;;;6.20;;
8952;SDS011;4511;50.890;8.054;2023-07-08T04:34:04;8.67;;;7.07;;
8952;SDS011;4511;50.890;8.054;2023-07-08T04:36:32;10.20;;;7.37;;
8952;SDS011;4511;50.890;8.054;2023-07-08T04:38:59;7.90;;;6.10;;
8952;SDS011;4511;50.890;8.054;2023-07-08T04:41:26;8.40;;;6.17;;
8952;SDS011;4511;50.890;8.054;2023-07-08T04:43:53;8.00;;;6.00;;
8952;SDS011;4511;50.890;8.054;2023-07-08T04:46:23;8.20;;;6.20;;
8952;SDS011;4511;50.890;8.054;2023-07-08T04:49:01;7.23;;;6.53;;
8952;SDS011;4511;50.890;8.054;2023-07-08T04:51:30;7.13;;;6.43;;
8952;SDS011;4511;50.890;8.054;2023-07-08T04:53:57;10.77;;;7.00;;
8952;SDS011;4511;50.890;8.054;2023-07-08T04:56:25;9.90;;;6.90;;
8952;SDS011;4511;50.890;8.054;2023-07-08T04:59:00;6.83;;;6.13;;
8952;SDS011;4511;50.890;8.054;2023-07-08T05:01:27;7.23;;;5.57;;
8952;SDS011;4511;50.890;8.054;2023-07-08T05:03:54;7.73;;;5.57;;
8952;SDS011;4511;50.890;8.054;2023-07-08T05:06:22;7.47;;;5.60;;
8952;SDS011;4511;50.890;8.054;2023-07-08T05:08:49;6.43;;;5.27;;
8952;SDS011;4511;50.890;8.054;2023-07-08T05:11:15;6.07;;;5.00;;
8952;SDS011;4511;50.890;8.054;2023-07-08T05:13:42;6.80;;;5.07;;
8952;SDS011;4511;50.890;8.054;2023-07-08T05:16:09;5.53;;;5.03;;
8952;SDS011;4511;50.890;8.054;2023-07-08T05:18:36;5.90;;;5.30;;
8952;SDS011;4511;50.890;8.054;2023-07-08T05:21:03;5.87;;;5.27;;
8952;SDS011;4511;50.890;8.054;2023-07-08T05:23:31;7.00;;;5.50;;
8952;SDS011;4511;50.890;8.054;2023-07-08T05:25:58;5.70;;;5.20;;
8952;SDS011;4511;50.890;8.054;2023-07-08T05:28:26;6.33;;;5.57;;
8952;SDS011;4511;50.890;8.054;2023-07-08T05:30:53;6.83;;;5.70;;
8952;SDS011;4511;50.890;8.054;2023-07-08T05:33:20;6.77;;;5.70;;
8952;SDS011;4511;50.890;8.054;2023-07-08T05:35:48;6.60;;;5.70;;
8952;SDS011;4511;50.890;8.054;2023-07-08T05:38:15;6.97;;;6.07;;
8952;SDS011;4511;50.890;8.054;2023-07-08T05:40:43;7.23;;;6.27;;
8952;SDS011;4511;50.890;8.054;2023-07-08T05:43:15;6.77;;;5.60;;
8952;SDS011;4511;50.890;8.054;2023-07-08T05:45:42;6.67;;;5.97;;
8952;SDS011;4511;50.890;8.054;2023-07-08T05:48:09;6.37;;;5.77;;
8952;SDS011;4511;50.890;8.054;2023-07-08T05:50:36;7.03;;;6.07;;
8952;SDS011;4511;50.890;8.054;2023-07-08T05:53:04;7.87;;;5.60;;
8952;SDS011;4511;50.890;8.054;2023-07-08T05:55:31;7.73;;;5.63;;
8952;SDS011;4511;50.890;8.054;2023-07-08T05:57:59;6.20;;;5.60;;
8952;SDS011;4511;50.890;8.054;2023-07-08T06:00:26;7.87;;;5.43;;
8952;SDS011;4511;50.890;8.054;2023-07-08T06:02:53;7.03;;;5.37;;
8952;SDS011;4511;50.890;8.054;2023-07-08T06:05:20;6.50;;;5.80;;
8952;SDS011;4511;50.890;8.054;2023-07-08T06:07:47;6.60;;;5.83;;
8952;SDS011;4511;50.890;8.054;2023-07-08T06:10:14;6.10;;;5.37;;
8952;SDS011;4511;50.890;8.054;2023-07-08T06:12:41;8.57;;;5.23;;
8952;SDS011;4511;50.890;8.054;2023-07-08T06:15:09;7.40;;;5.47;;
8952;SDS011;4511;50.890;8.054;2023-07-08T06:17:37;6.10;;;5.40;;
8952;SDS011;4511;50.890;8.054;2023-07-08T06:20:04;6.00;;;5.37;;
8952;SDS011;4511;50.890;8.054;2023-07-08T06:22:32;6.50;;;5.10;;
8952;SDS011;4511;50.890;8.054;2023-07-08T06:24:58;6.77;;;4.60;;
8952;SDS011;4511;50.890;8.054;2023-07-08T06:27:25;6.83;;;5.73;;
8952;SDS011;4511;50.890;8.054;2023-07-08T06:29:53;7.07;;;5.10;;
8952;SDS011;4511;50.890;8.054;2023-07-08T06:32:21;9.23;;;5.47;;
8952;SDS011;4511;50.890;8.054;2023-07-08T06:34:48;6.20;;;5.17;;
8952;SDS011;4511;50.890;8.054;2023-07-08T06:37:14;5.53;;;4.73;;
8952;SDS011;4511;50.890;8.054;2023-07-08T06:39:41;5.37;;;4.87;;
8952;SDS011;4511;50.890;8.054;2023-07-08T06:42:08;5.37;;;4.90;;
8952;SDS011;4511;50.890;8.054;2023-07-08T06:44:35;6.57;;;5.77;;
8952;SDS011;4511;50.890;8.054;2023-07-08T06:47:03;6.57;;;4.90;;
8952;SDS011;4511;50.890;8.054;2023-07-08T06:49:31;5.80;;;5.03;;
8952;SDS011;4511;50.890;8.054;2023-07-08T06:51:58;6.90;;;5.70;;
8952;SDS011;4511;50.890;8.054;2023-07-08T06:54:25;5.23;;;4.73;;
8952;SDS011;4511;50.890;8.054;2023-07-08T06:56:53;7.90;;;4.77;;
8952;SDS011;4511;50.890;8.054;2023-07-08T06:59:20;5.03;;;4.53;;
8952;SDS011;4511;50.890;8.054;2023-07-08T07:01:47;9.37;;;4.60;;
8952;SDS011;4511;50.890;8.054;2023-07-08T07:04:13;5.43;;;4.33;;
8952;SDS011;4511;50.890;8.054;2023-07-08T07:06:42;4.53;;;4.03;;
8952;SDS011;4511;50.890;8.054;2023-07-08T07:09:08;6.07;;;4.80;;
8952;SDS011;4511;50.890;8.054;2023-07-08T07:11:35;4.73;;;4.23;;
8952;SDS011;4511;50.890;8.054;2023-07-08T07:14:02;5.83;;;4.40;;
8952;SDS011;4511;50.890;8.054;2023-07-08T07:16:29;6.87;;;4.37;;
8952;SDS011;4511;50.890;8.054;2023-07-08T07:18:56;5.57;;;4.57;;
8952;SDS011;4511;50.890;8.054;2023-07-08T07:21:23;5.40;;;4.40;;
8952;SDS011;4511;50.890;8.054;2023-07-08T07:23:51;6.43;;;4.20;;
8952;SDS011;4511;50.890;8.054;2023-07-08T07:26:18;5.50;;;4.87;;
8952;SDS011;4511;50.890;8.054;2023-07-08T07:28:45;8.43;;;4.30;;
8952;SDS011;4511;50.890;8.054;2023-07-08T07:31:11;6.80;;;4.63;;
8952;SDS011;4511;50.890;8.054;2023-07-08T07:33:38;10.90;;;4.80;;
8952;SDS011;4511;50.890;8.054;2023-07-08T07:36:05;5.93;;;4.50;;
8952;SDS011;4511;50.890;8.054;2023-07-08T07:38:32;4.80;;;4.37;;
8952;SDS011;4511;50.890;8.054;2023-07-08T07:41:01;5.10;;;4.60;;
8952;SDS011;4511;50.890;8.054;2023-07-08T07:43:31;4.83;;;4.43;;
8952;SDS011;4511;50.890;8.054;2023-07-08T07:45:58;5.93;;;4.50;;
8952;SDS011;4511;50.890;8.054;2023-07-08T07:48:25;6.07;;;4.67;;
8952;SDS011;4511;50.890;8.054;2023-07-08T07:50:51;5.73;;;4.70;;
8952;SDS011;4511;50.890;8.054;2023-07-08T07:53:18;5.40;;;4.90;;
8952;SDS011;4511;50.890;8.054;2023-07-08T07:55:45;5.83;;;4.37;;
8952;SDS011;4511;50.890;8.054;2023-07-08T07:58:13;5.23;;;4.73;;
8952;SDS011;4511;50.890;8.054;2023-07-08T08:00:40;6.13;;;4.53;;
8952;SDS011;4511;50.890;8.054;2023-07-08T08:03:07;5.50;;;5.00;;
8952;SDS011;4511;50.890;8.054;2023-07-08T08:05:34;4.50;;;4.03;;
8952;SDS011;4511;50.890;8.054;2023-07-08T08:08:00;5.73;;;4.80;;
8952;SDS011;4511;50.890;8.054;2023-07-08T08:10:29;5.40;;;4.90;;
8952;SDS011;4511;50.890;8.054;2023-07-08T08:12:55;5.33;;;4.80;;
8952;SDS011;4511;50.890;8.054;2023-07-08T08:15:24;5.00;;;4.50;;
8952;SDS011;4511;50.890;8.054;2023-07-08T08:17:50;5.93;;;4.77;;
8952;SDS011;4511;50.890;8.054;2023-07-08T08:20:18;7.50;;;5.23;;
8952;SDS011;4511;50.890;8.054;2023-07-08T08:22:45;21.53;;;6.53;;
8952;SDS011;4511;50.890;8.054;2023-07-08T08:25:12;4.60;;;4.20;;
8952;SDS011;4511;50.890;8.054;2023-07-08T08:27:39;5.53;;;4.83;;
8952;SDS011;4511;50.890;8.054;2023-07-08T08:30:07;12.70;;;5.07;;
8952;SDS011;4511;50.890;8.054;2023-07-08T08:32:35;6.77;;;5.20;;
8952;SDS011;4511;50.890;8.054;2023-07-08T08:35:02;13.23;;;5.50;;
8952;SDS011;4511;50.890;8.054;2023-07-08T08:37:29;5.23;;;4.73;;
8952;SDS011;4511;50.890;8.054;2023-07-08T08:39:56;8.43;;;5.20;;
8952;SDS011;4511;50.890;8.054;2023-07-08T08:42:24;5.27;;;4.77;;
8952;SDS011;4511;50.890;8.054;2023-07-08T08:44:53;5.70;;;5.20;;
8952;SDS011;4511;50.890;8.054;2023-07-08T08:47:25;7.07;;;5.37;;
8952;SDS011;4511;50.890;8.054;2023-07-08T08:50:01;5.97;;;4.70;;
8952;SDS011;4511;50.890;8.054;2023-07-08T08:52:34;6.73;;;4.97;;
8952;SDS011;4511;50.890;8.054;2023-07-08T08:55:04;7.23;;;4.73;;
8952;SDS011;4511;50.890;8.054;2023-07-08T08:57:37;8.07;;;4.87;;
8952;SDS011;4511;50.890;8.054;2023-07-08T09:00:09;5.80;;;4.27;;
8952;SDS011;4511;50.890;8.054;2023-07-08T09:02:45;5.40;;;4.80;;
8952;SDS011;4511;50.890;8.054;2023-07-08T09:05:19;6.53;;;5.07;;
8952;SDS011;4511;50.890;8.054;2023-07-08T09:07:47;5.63;;;4.67;;
8952;SDS011;4511;50.890;8.054;2023-07-08T09:10:31;5.47;;;4.50;;
8952;SDS011;4511;50.890;8.054;2023-07-08T09:13:08;6.13;;;5.00;;
8952;SDS011;4511;50.890;8.054;2023-07-08T09:15:40;5.60;;;4.83;;
8952;SDS011;4511;50.890;8.054;2023-07-08T09:18:10;5.37;;;3.90;;
8952;SDS011;4511;50.890;8.054;2023-07-08T09:20:47;4.60;;;4.20;;
8952;SDS011;4511;50.890;8.054;2023-07-08T09:23:16;7.63;;;4.67;;
8952;SDS011;4511;50.890;8.054;2023-07-08T09:25:49;5.10;;;4.60;;
8952;SDS011;4511;50.890;8.054;2023-07-08T09:28:19;5.80;;;4.90;;
8952;SDS011;4511;50.890;8.054;2023-07-08T09:30:46;8.17;;;5.30;;
8952;SDS011;4511;50.890;8.054;2023-07-08T09:33:14;6.23;;;4.90;;
8952;SDS011;4511;50.890;8.054;2023-07-08T09:35:42;6.07;;;4.77;;
8952;SDS011;4511;50.890;8.054;2023-07-08T09:38:15;5.43;;;4.87;;
8952;SDS011;4511;50.890;8.054;2023-07-08T09:40:45;5.40;;;4.90;;
8952;SDS011;4511;50.890;8.054;2023-07-08T09:43:16;5.87;;;5.23;;
8952;SDS011;4511;50.890;8.054;2023-07-08T09:45:48;8.50;;;5.20;;
8952;SDS011;4511;50.890;8.054;2023-07-08T09:48:16;6.27;;;4.73;;
8952;SDS011;4511;50.890;8.054;2023-07-08T09:50:47;5.90;;;4.60;;
8952;SDS011;4511;50.890;8.054;2023-07-08T09:53:16;4.93;;;4.37;;
8952;SDS011;4511;50.890;8.054;2023-07-08T09:55:43;5.57;;;4.40;;
8952;SDS011;4511;50.890;8.054;2023-07-08T09:58:11;6.83;;;4.80;;
8952;SDS011;4511;50.890;8.054;2023-07-08T10:00:41;7.00;;;4.60;;
8952;SDS011;4511;50.890;8.054;2023-07-08T10:03:11;5.17;;;4.47;;
8952;SDS011;4511;50.890;8.054;2023-07-08T10:05:43;6.03;;;4.00;;
8952;SDS011;4511;50.890;8.054;2023-07-08T10:08:15;8.37;;;4.53;;
8952;SDS011;4511;50.890;8.054;2023-07-08T10:10:45;5.83;;;3.97;;
8952;SDS011;4511;50.890;8.054;2023-07-08T10:13:15;5.57;;;4.67;;
8952;SDS011;4511;50.890;8.054;2023-07-08T10:15:46;5.30;;;4.73;;
8952;SDS011;4511;50.890;8.054;2023-07-08T10:18:17;7.27;;;4.17;;
8952;SDS011;4511;50.890;8.054;2023-07-08T10:20:53;4.93;;;4.43;;
8952;SDS011;4511;50.890;8.054;2023-07-08T10:23:31;6.60;;;4.57;;
8952;SDS011;4511;50.890;8.054;2023-07-08T10:26:08;5.50;;;4.23;;
8952;SDS011;4511;50.890;8.054;2023-07-08T10:28:41;6.00;;;4.60;;
8952;SDS011;4511;50.890;8.054;2023-07-08T10:31:16;7.57;;;5.03;;
8952;SDS011;4511;50.890;8.054;2023-07-08T10:33:55;5.27;;;4.77;;
8952;SDS011;4511;50.890;8.054;2023-07-08T10:36:36;6.43;;;5.03;;
8952;SDS011;4511;50.890;8.054;2023-07-08T10:39:29;5.80;;;5.00;;
8952;SDS011;4511;50.890;8.054;2023-07-08T10:42:19;6.73;;;5.10;;
8952;SDS011;4511;50.890;8.054;2023-07-08T10:44:54;8.03;;;5.13;;
8952;SDS011;4511;50.890;8.054;2023-07-08T10:47:34;7.20;;;5.03;;
8952;SDS011;4511;50.890;8.054;2023-07-08T10:50:17;8.00;;;5.10;;
8952;SDS011;4511;50.890;8.054;2023-07-08T10:52:59;10.93;;;5.17;;
8952;SDS011;4511;50.890;8.054;2023-07-08T10:55:40;6.97;;;5.10;;
8952;SDS011;4511;50.890;8.054;2023-07-08T10:58:25;6.47;;;5.17;;
8952;SDS011;4511;50.890;8.054;2023-07-08T11:01:16;6.67;;;4.80;;
8952;SDS011;4511;50.890;8.054;2023-07-08T11:03:56;6.67;;;4.60;;
8952;SDS011;4511;50.890;8.054;2023-07-08T11:06:37;6.47;;;4.60;;
8952;SDS011;4511;50.890;8.054;2023-07-08T11:09:11;6.27;;;4.80;;
8952;SDS011;4511;50.890;8.054;2023-07-08T11:11:43;5.43;;;4.50;;
8952;SDS011;4511;50.890;8.054;2023-07-08T11:14:15;6.43;;;4.50;;
8952;SDS011;4511;50.890;8.054;2023-07-08T11:16:47;5.20;;;4.57;;
8952;SDS011;4511;50.890;8.054;2023-07-08T11:19:22;5.83;;;4.93;;
8952;SDS011;4511;50.890;8.054;2023-07-08T11:21:53;4.63;;;4.10;;
8952;SDS011;4511;50.890;8.054;2023-07-08T11:24:24;5.43;;;4.47;;
8952;SDS011;4511;50.890;8.054;2023-07-08T11:27:00;5.03;;;4.20;;
8952;SDS011;4511;50.890;8.054;2023-07-08T11:29:33;5.80;;;4.70;;
8952;SDS011;4511;50.890;8.054;2023-07-08T11:32:03;7.23;;;4.40;;
8952;SDS011;4511;50.890;8.054;2023-07-08T11:34:32;5.70;;;4.30;;
8952;SDS011;4511;50.890;8.054;2023-07-08T11:37:00;5.80;;;4.80;;
8952;SDS011;4511;50.890;8.054;2023-07-08T11:39:31;4.77;;;4.37;;
8952;SDS011;4511;50.890;8.054;2023-07-08T11:42:04;5.43;;;4.57;;
8952;SDS011;4511;50.890;8.054;2023-07-08T11:44:41;8.30;;;4.97;;
8952;SDS011;4511;50.890;8.054;2023-07-08T11:47:13;5.83;;;4.37;;
8952;SDS011;4511;50.890;8.054;2023-07-08T11:49:45;5.27;;;4.30;;
8952;SDS011;4511;50.890;8.054;2023-07-08T11:52:15;6.43;;;3.97;;
8952;SDS011;4511;50.890;8.054;2023-07-08T11:54:45;8.53;;;4.50;;
8952;SDS011;4511;50.890;8.054;2023-07-08T11:57:17;4.67;;;4.10;;
8952;SDS011;4511;50.890;8.054;2023-07-08T12:00:05;4.80;;;4.20;;
8952;SDS011;4511;50.890;8.054;2023-07-08T12:02:51;6.23;;;4.27;;
8952;SDS011;4511;50.890;8.054;2023-07-08T12:05:31;6.50;;;4.43;;
8952;SDS011;4511;50.890;8.054;2023-07-08T12:07:59;4.43;;;4.03;;
8952;SDS011;4511;50.890;8.054;2023-07-08T12:10:31;6.47;;;4.37;;
8952;SDS011;4511;50.890;8.054;2023-07-08T12:13:01;6.40;;;4.70;;
8952;SDS011;4511;50.890;8.054;2023-07-08T12:15:29;4.93;;;4.30;;
8952;SDS011;4511;50.890;8.054;2023-07-08T12:17:59;7.03;;;4.60;;
8952;SDS011;4511;50.890;8.054;2023-07-08T12:20:30;5.33;;;4.60;;
8952;SDS011;4511;50.890;8.054;2023-07-08T12:22:59;5.23;;;4.60;;
8952;SDS011;4511;50.890;8.054;2023-07-08T12:25:29;5.40;;;4.60;;
8952;SDS011;4511;50.890;8.054;2023-07-08T12:27:57;8.10;;;4.97;;
8952;SDS011;4511;50.890;8.054;2023-07-08T12:30:25;6.67;;;5.27;;
8952;SDS011;4511;50.890;8.054;2023-07-08T12:32:54;11.67;;;9.03;;
8952;SDS011;4511;50.890;8.054;2023-07-08T12:35:24;7.67;;;5.10;;
8952;SDS011;4511;50.890;8.054;2023-07-08T12:37:54;8.43;;;5.70;;
8952;SDS011;4511;50.890;8.054;2023-07-08T12:40:24;6.60;;;4.60;;
8952;SDS011;4511;50.890;8.054;2023-07-08T12:42:52;8.70;;;5.47;;
8952;SDS011;4511;50.890;8.054;2023-07-08T12:45:20;5.97;;;4.73;;
8952;SDS011;4511;50.890;8.054;2023-07-08T12:47:49;7.03;;;4.77;;
8952;SDS011;4511;50.890;8.054;2023-07-08T12:50:16;7.57;;;5.90;;
8952;SDS011;4511;50.890;8.054;2023-07-08T12:52:43;5.67;;;5.07;;
8952;SDS011;4511;50.890;8.054;2023-07-08T12:55:11;8.30;;;5.17;;
8952;SDS011;4511;50.890;8.054;2023-07-08T12:57:39;6.63;;;5.90;;
8952;SDS011;4511;50.890;8.054;2023-07-08T13:00:10;20.27;;;5.47;;
8952;SDS011;4511;50.890;8.054;2023-07-08T13:02:43;7.13;;;4.90;;
8952;SDS011;4511;50.890;8.054;2023-07-08T13:05:13;5.70;;;4.97;;
8952;SDS011;4511;50.890;8.054;2023-07-08T13:07:41;6.70;;;5.23;;
8952;SDS011;4511;50.890;8.054;2023-07-08T13:10:15;8.63;;;5.60;;
8952;SDS011;4511;50.890;8.054;2023-07-08T13:12:45;9.93;;;6.10;;
8952;SDS011;4511;50.890;8.054;2023-07-08T13:15:17;12.40;;;6.20;;
8952;SDS011;4511;50.890;8.054;2023-07-08T13:17:47;7.03;;;5.13;;
8952;SDS011;4511;50.890;8.054;2023-07-08T13:20:16;5.80;;;4.90;;
8952;SDS011;4511;50.890;8.054;2023-07-08T13:22:46;7.67;;;5.27;;
8952;SDS011;4511;50.890;8.054;2023-07-08T13:25:17;8.70;;;5.17;;
8952;SDS011;4511;50.890;8.054;2023-07-08T13:27:54;7.83;;;4.90;;
8952;SDS011;4511;50.890;8.054;2023-07-08T13:30:23;6.40;;;4.93;;
8952;SDS011;4511;50.890;8.054;2023-07-08T13:32:51;6.47;;;5.23;;
8952;SDS011;4511;50.890;8.054;2023-07-08T13:35:27;7.10;;;4.60;;
8952;SDS011;4511;50.890;8.054;2023-07-08T13:38:00;10.63;;;4.30;;
8952;SDS011;4511;50.890;8.054;2023-07-08T13:40:27;7.97;;;4.70;;
8952;SDS011;4511;50.890;8.054;2023-07-08T13:42:55;5.43;;;4.77;;
8952;SDS011;4511;50.890;8.054;2023-07-08T13:45:23;7.40;;;4.80;;
8952;SDS011;4511;50.890;8.054;2023-07-08T13:47:58;10.40;;;5.20;;
8952;SDS011;4511;50.890;8.054;2023-07-08T13:50:29;5.80;;;4.50;;
8952;SDS011;4511;50.890;8.054;2023-07-08T13:53:20;7.17;;;5.43;;
8952;SDS011;4511;50.890;8.054;2023-07-08T13:55:48;7.17;;;5.03;;
8952;SDS011;4511;50.890;8.054;2023-07-08T13:58:26;8.73;;;5.17;;
8952;SDS011;4511;50.890;8.054;2023-07-08T14:00:55;7.77;;;5.17;;
8952;SDS011;4511;50.890;8.054;2023-07-08T14:03:22;6.53;;;5.53;;
8952;SDS011;4511;50.890;8.054;2023-07-08T14:05:51;8.97;;;5.37;;
8952;SDS011;4511;50.890;8.054;2023-07-08T14:08:18;6.70;;;5.20;;
8952;SDS011;4511;50.890;8.054;2023-07-08T14:10:46;6.93;;;5.40;;
8952;SDS011;4511;50.890;8.054;2023-07-08T14:13:13;5.90;;;5.30;;
8952;SDS011;4511;50.890;8.054;2023-07-08T14:15:40;6.57;;;5.10;;
8952;SDS011;4511;50.890;8.054;2023-07-08T14:18:08;7.70;;;5.20;;
8952;SDS011;4511;50.890;8.054;2023-07-08T14:20:37;6.87;;;5.60;;
8952;SDS011;4511;50.890;8.054;2023-07-08T14:23:07;13.43;;;5.93;;
8952;SDS011;4511;50.890;8.054;2023-07-08T14:25:35;6.60;;;5.40;;
8952;SDS011;4511;50.890;8.054;2023-07-08T14:28:02;8.20;;;5.97;;
8952;SDS011;4511;50.890;8.054;2023-07-08T14:30:30;8.87;;;6.10;;
8952;SDS011;4511;50.890;8.054;2023-07-08T14:32:57;7.93;;;6.00;;
8952;SDS011;4511;50.890;8.054;2023-07-08T14:35:25;7.03;;;5.33;;
8952;SDS011;4511;50.890;8.054;2023-07-08T14:37:54;6.90;;;6.20;;
8952;SDS011;4511;50.890;8.054;2023-07-08T14:40:25;7.33;;;6.47;;
8952;SDS011;4511;50.890;8.054;2023-07-08T14:42:55;12.53;;;11.43;;
8952;SDS011;4511;50.890;8.054;2023-07-08T14:45:25;8.70;;;7.80;;
8952;SDS011;4511;50.890;8.054;2023-07-08T14:47:52;7.17;;;5.30;;
8952;SDS011;4511;50.890;8.054;2023-07-08T14:50:19;9.07;;;6.40;;
8952;SDS011;4511;50.890;8.054;2023-07-08T14:52:47;6.50;;;5.90;;
8952;SDS011;4511;50.890;8.054;2023-07-08T14:55:14;7.20;;;5.73;;
8952;SDS011;4511;50.890;8.054;2023-07-08T14:57:43;6.17;;;5.57;;
8952;SDS011;4511;50.890;8.054;2023-07-08T15:00:12;9.60;;;6.20;;
8952;SDS011;4511;50.890;8.054;2023-07-08T15:02:40;13.20;;;6.10;;
8952;SDS011;4511;50.890;8.054;2023-07-08T15:05:15;8.70;;;5.73;;
8952;SDS011;4511;50.890;8.054;2023-07-08T15:07:44;7.27;;;5.87;;
8952;SDS011;4511;50.890;8.054;2023-07-08T15:10:14;6.27;;;5.67;;
8952;SDS011;4511;50.890;8.054;2023-07-08T15:12:42;6.80;;;5.63;;
8952;SDS011;4511;50.890;8.054;2023-07-08T15:15:13;6.97;;;5.53;;
8952;SDS011;4511;50.890;8.054;2023-07-08T15:17:41;6.43;;;5.83;;
8952;SDS011;4511;50.890;8.054;2023-07-08T15:20:10;7.53;;;5.70;;
8952;SDS011;4511;50.890;8.054;2023-07-08T15:22:39;8.07;;;6.17;;
8952;SDS011;4511;50.890;8.054;2023-07-08T15:25:10;7.87;;;5.70;;
8952;SDS011;4511;50.890;8.054;2023-07-08T15:27:38;8.20;;;5.83;;
8952;SDS011;4511;50.890;8.054;2023-07-08T15:30:14;7.97;;;5.90;;